Time;durP1;ratioP1;P1;durP2;ratioP2;P2;SDS_P1;SDS_P2;PMS_P1;PMS_P2;Temp;Humidity;BMP_temperature;BMP_pressure;BME280_temperature;BME280_humidity;BME280_pressure;Samples;Min_cycle;Max_cycle;Signal;HPM_P1;HPM_P2
2023/08/01 00:00:02;;;;;;;;;;;16.40;99.90;;;;;;5134328;27;20306;-68
2023/08/01 00:02:30;;;;;;;;;;;16.40;99.90;;;;;;5131969;27;20336;-68
2023/08/01 00:04:56;;;;;;;;;;;16.40;99.90;;;;;;5133784;27;19923;-68
2023/08/01 00:07:23;;;;;;;;;;;16.40;99.90;;;;;;5132267;27;19924;-68
2023/08/01 00:09:50;;;;;;;;;;;16.40;99.90;;;;;;5133977;27;19923;-68
2023/08/01 00:12:17;;;;;;;;;;;16.40;99.90;;;;;;5113802;27;19980;-68
2023/08/01 00:14:43;;;;;;;;;;;16.40;99.90;;;;;;5133909;27;19992;-68
2023/08/01 00:17:10;;;;;;;;;;;16.30;99.90;;;;;;5133522;27;19923;-68
2023/08/01 00:19:38;;;;;;;;;;;16.40;99.90;;;;;;5133976;27;19930;-68
2023/08/01 00:22:05;;;;;;;;;;;16.30;99.90;;;;;;5113612;27;19924;-68
2023/08/01 00:24:32;;;;;;;;;;;16.30;99.90;;;;;;5133423;27;19931;-68
2023/08/01 00:26:58;;;;;;;;;;;16.30;99.90;;;;;;5113338;27;19928;-68
2023/08/01 00:29:25;;;;;;;;;;;16.30;99.90;;;;;;5114865;27;19932;-68
2023/08/01 00:31:52;;;;;;;;;;;16.20;99.90;;;;;;5113049;28;19927;-68
2023/08/01 00:34:18;;;;;;;;;;;16.30;99.90;;;;;;5133946;27;19930;-68
2023/08/01 00:36:46;;;;;;;;;;;16.20;99.90;;;;;;5113401;27;19980;-68
2023/08/01 00:39:13;;;;;;;;;;;16.20;99.90;;;;;;5114263;27;20424;-69
2023/08/01 00:41:40;;;;;;;;;;;16.20;99.90;;;;;;5113526;27;19924;-69
2023/08/01 00:44:07;;;;;;;;;;;16.20;99.90;;;;;;5115077;27;19923;-68
2023/08/01 00:46:33;;;;;;;;;;;16.10;99.90;;;;;;5113272;28;19924;-68
2023/08/01 00:49:00;;;;;;;;;;;16.10;99.90;;;;;;5133666;27;19930;-68
2023/08/01 00:51:27;;;;;;;;;;;16.10;99.90;;;;;;5133683;27;19931;-68
2023/08/01 00:53:55;;;;;;;;;;;16.10;99.90;;;;;;5132927;27;19923;-69
2023/08/01 00:56:22;;;;;;;;;;;16.00;99.90;;;;;;5133381;28;20407;-69
2023/08/01 00:58:48;;;;;;;;;;;16.00;99.90;;;;;;5133817;28;19964;-69
2023/08/01 01:01:15;;;;;;;;;;;16.00;99.90;;;;;;5113907;27;19931;-68
2023/08/01 01:03:42;;;;;;;;;;;15.90;99.90;;;;;;5117137;27;19936;-68
2023/08/01 01:06:12;;;;;;;;;;;15.90;99.90;;;;;;5117679;27;19992;-68
2023/08/01 01:08:39;;;;;;;;;;;15.80;99.90;;;;;;5137725;27;20443;-68
2023/08/01 01:11:07;;;;;;;;;;;15.80;99.90;;;;;;5137554;27;19935;-69
2023/08/01 01:13:34;;;;;;;;;;;15.70;99.90;;;;;;5117138;27;20387;-69
2023/08/01 01:16:01;;;;;;;;;;;15.70;99.90;;;;;;5137412;27;19923;-69
2023/08/01 01:18:28;;;;;;;;;;;15.70;99.90;;;;;;5137644;27;19924;-68
2023/08/01 01:20:56;;;;;;;;;;;15.60;99.90;;;;;;5115932;27;19924;-68
2023/08/01 01:23:23;;;;;;;;;;;15.50;99.90;;;;;;5118161;27;20349;-68
2023/08/01 01:25:51;;;;;;;;;;;15.50;99.90;;;;;;5116922;27;20271;-69
2023/08/01 01:28:18;;;;;;;;;;;15.40;99.90;;;;;;5117921;27;19931;-68
2023/08/01 01:30:45;;;;;;;;;;;15.40;99.90;;;;;;5117244;27;19924;-68
2023/08/01 01:33:12;;;;;;;;;;;15.30;99.90;;;;;;5118390;27;21267;-68
2023/08/01 01:35:39;;;;;;;;;;;15.30;99.90;;;;;;5136600;27;19928;-68
2023/08/01 01:38:07;;;;;;;;;;;15.20;99.90;;;;;;5118115;27;19923;-68
2023/08/01 01:40:34;;;;;;;;;;;15.20;99.90;;;;;;5117080;27;19939;-68
2023/08/01 01:43:01;;;;;;;;;;;15.20;99.90;;;;;;5117670;27;19931;-68
2023/08/01 01:45:28;;;;;;;;;;;15.20;99.90;;;;;;5116966;27;19924;-68
2023/08/01 01:47:55;;;;;;;;;;;15.10;99.90;;;;;;5118120;27;19976;-68
2023/08/01 01:50:21;;;;;;;;;;;15.10;99.90;;;;;;5116750;27;20043;-67
2023/08/01 01:52:48;;;;;;;;;;;15.10;99.90;;;;;;5136615;27;19930;-68
2023/08/01 01:55:16;;;;;;;;;;;15.20;99.90;;;;;;5137082;27;19930;-67
2023/08/01 01:57:43;;;;;;;;;;;15.10;99.90;;;;;;5136017;27;20390;-67
2023/08/01 02:00:11;;;;;;;;;;;15.00;99.90;;;;;;5136773;27;19930;-67
2023/08/01 02:02:37;;;;;;;;;;;15.00;99.90;;;;;;5136099;27;19924;-68
2023/08/01 02:05:04;;;;;;;;;;;15.00;99.90;;;;;;5117665;27;19927;-67
2023/08/01 02:07:33;;;;;;;;;;;14.90;99.90;;;;;;5136495;27;20383;-68
2023/08/01 02:10:00;;;;;;;;;;;14.90;99.90;;;;;;5136074;27;20378;-68
2023/08/01 02:12:31;;;;;;;;;;;14.90;99.90;;;;;;5136551;27;19923;-68
2023/08/01 02:14:58;;;;;;;;;;;14.80;99.90;;;;;;5134636;27;19976;-68
2023/08/01 02:17:24;;;;;;;;;;;14.70;99.90;;;;;;5116752;27;19927;-68
2023/08/01 02:19:51;;;;;;;;;;;14.70;99.90;;;;;;5115847;27;19924;-68
2023/08/01 02:22:18;;;;;;;;;;;14.60;99.90;;;;;;5136332;27;19924;-68
2023/08/01 02:24:45;;;;;;;;;;;14.60;99.90;;;;;;5135737;27;19968;-67
2023/08/01 02:27:11;;;;;;;;;;;14.60;99.90;;;;;;5136188;27;19930;-67
2023/08/01 02:29:39;;;;;;;;;;;14.50;99.90;;;;;;5116372;27;19924;-67
2023/08/01 02:32:06;;;;;;;;;;;14.50;99.90;;;;;;5135542;27;19931;-67
2023/08/01 02:34:33;;;;;;;;;;;14.50;99.90;;;;;;5116295;27;20028;-68
2023/08/01 02:37:00;;;;;;;;;;;14.50;99.90;;;;;;5117336;27;19923;-68
2023/08/01 02:39:26;;;;;;;;;;;14.40;99.90;;;;;;5135298;27;20403;-68
2023/08/01 02:41:53;;;;;;;;;;;14.40;99.90;;;;;;5117057;27;20016;-68
2023/08/01 02:44:20;;;;;;;;;;;14.40;99.90;;;;;;5136033;27;19923;-68
2023/08/01 02:46:48;;;;;;;;;;;14.40;99.90;;;;;;5116414;27;19935;-68
2023/08/01 02:49:14;;;;;;;;;;;14.40;99.90;;;;;;5135785;27;20344;-68
2023/08/01 02:51:41;;;;;;;;;;;14.40;99.90;;;;;;5135231;27;20761;-67
2023/08/01 02:54:08;;;;;;;;;;;14.40;99.90;;;;;;5135598;27;20387;-68
2023/08/01 02:56:34;;;;;;;;;;;14.40;99.90;;;;;;5117604;27;19930;-68
2023/08/01 02:59:02;;;;;;;;;;;14.40;99.90;;;;;;5135078;27;20352;-69
2023/08/01 03:01:29;;;;;;;;;;;14.40;99.90;;;;;;5133033;27;20395;-68
2023/08/01 03:03:57;;;;;;;;;;;14.40;99.90;;;;;;5135754;27;19927;-68
2023/08/01 03:06:24;;;;;;;;;;;14.40;99.90;;;;;;5135087;27;19931;-68
2023/08/01 03:08:51;;;;;;;;;;;14.40;99.90;;;;;;5135349;27;19930;-68
2023/08/01 03:11:17;;;;;;;;;;;14.50;99.90;;;;;;5135410;27;19923;-68
2023/08/01 03:13:44;;;;;;;;;;;14.50;99.90;;;;;;5115655;27;19927;-67
2023/08/01 03:16:11;;;;;;;;;;;14.50;99.90;;;;;;5115171;27;19924;-67
2023/08/01 03:18:37;;;;;;;;;;;14.60;99.90;;;;;;5135187;27;20315;-67
2023/08/01 03:21:05;;;;;;;;;;;14.60;99.90;;;;;;5134823;27;19924;-67
2023/08/01 03:23:32;;;;;;;;;;;14.60;99.90;;;;;;5116185;27;19924;-68
2023/08/01 03:25:59;;;;;;;;;;;14.70;99.90;;;;;;5134510;27;20379;-68
2023/08/01 03:28:26;;;;;;;;;;;14.70;99.90;;;;;;5134170;27;19931;-67
2023/08/01 03:30:53;;;;;;;;;;;14.80;99.90;;;;;;5115526;27;19931;-68
2023/08/01 03:33:20;;;;;;;;;;;14.90;99.90;;;;;;5114363;27;19951;-67
2023/08/01 03:35:47;;;;;;;;;;;14.90;99.90;;;;;;5114737;27;19939;-68
2023/08/01 03:38:15;;;;;;;;;;;15.00;99.90;;;;;;5132721;27;19923;-68
2023/08/01 03:40:42;;;;;;;;;;;15.00;99.90;;;;;;5115700;27;20383;-67
2023/08/01 03:43:09;;;;;;;;;;;15.00;99.90;;;;;;5113706;27;19924;-67
2023/08/01 03:45:36;;;;;;;;;;;15.00;99.90;;;;;;5114890;27;19924;-68
2023/08/01 03:48:03;;;;;;;;;;;15.00;99.90;;;;;;5124895;27;19977;-68
2023/08/01 03:50:29;;;;;;;;;;;15.10;99.90;;;;;;5127918;27;19923;-68
2023/08/01 03:52:56;;;;;;;;;;;15.30;99.90;;;;;;5107815;27;19924;-68
2023/08/01 03:55:24;;;;;;;;;;;15.30;99.90;;;;;;5113894;27;19928;-68
2023/08/01 03:57:51;;;;;;;;;;;15.30;99.90;;;;;;5130642;27;19931;-68
2023/08/01 04:00:18;;;;;;;;;;;15.40;99.90;;;;;;5110890;27;20027;-68
2023/08/01 04:02:45;;;;;;;;;;;15.30;99.90;;;;;;5111060;27;19931;-68
2023/08/01 04:05:12;;;;;;;;;;;15.30;99.90;;;;;;5130189;27;19924;-69
2023/08/01 04:07:39;;;;;;;;;;;15.30;99.90;;;;;;5131297;27;19924;-68
2023/08/01 04:10:06;;;;;;;;;;;15.30;99.90;;;;;;5109073;27;19931;-68
2023/08/01 04:12:35;;;;;;;;;;;15.40;99.90;;;;;;5111008;27;19931;-68
2023/08/01 04:15:01;;;;;;;;;;;15.30;99.90;;;;;;5111562;27;20325;-68
2023/08/01 04:17:29;;;;;;;;;;;15.30;99.90;;;;;;5132796;27;20031;-69
2023/08/01 04:19:56;;;;;;;;;;;15.40;99.90;;;;;;5111955;27;20007;-69
2023/08/01 04:22:23;;;;;;;;;;;15.40;99.90;;;;;;5132334;27;19924;-69
2023/08/01 04:24:50;;;;;;;;;;;15.40;99.90;;;;;;5111015;27;20375;-71
2023/08/01 04:27:16;;;;;;;;;;;15.40;99.90;;;;;;5112732;27;20451;-72
2023/08/01 04:29:45;;;;;;;;;;;15.70;99.90;;;;;;5111210;27;19935;-72
2023/08/01 04:32:13;;;;;;;;;;;15.70;99.90;;;;;;5111974;27;19930;-73
2023/08/01 04:34:40;;;;;;;;;;;15.60;99.90;;;;;;5111830;27;19923;-72
2023/08/01 04:37:07;;;;;;;;;;;15.50;99.90;;;;;;5130162;27;20383;-68
2023/08/01 04:39:34;;;;;;;;;;;15.50;99.90;;;;;;5110400;27;19932;-68
2023/08/01 04:42:01;;;;;;;;;;;15.60;99.90;;;;;;5133091;27;19923;-68
2023/08/01 04:44:29;;;;;;;;;;;15.40;99.90;;;;;;5130600;27;19924;-68
2023/08/01 04:46:57;;;;;;;;;;;15.30;99.90;;;;;;5114658;28;19935;-68
2023/08/01 04:49:24;;;;;;;;;;;15.30;99.90;;;;;;5107801;27;19928;-69
2023/08/01 04:51:51;;;;;;;;;;;15.30;99.90;;;;;;5131637;27;19932;-68
2023/08/01 04:54:17;;;;;;;;;;;15.20;99.90;;;;;;5109083;27;19927;-67
2023/08/01 04:56:44;;;;;;;;;;;15.20;99.90;;;;;;5130152;27;19931;-67
2023/08/01 04:59:11;;;;;;;;;;;15.30;99.90;;;;;;5108594;28;19927;-68
2023/08/01 05:01:37;;;;;;;;;;;15.30;99.90;;;;;;5111643;28;20625;-68
2023/08/01 05:04:06;;;;;;;;;;;15.30;99.90;;;;;;5109382;28;20028;-68
2023/08/01 05:06:32;;;;;;;;;;;15.40;99.90;;;;;;5129897;28;19927;-68
2023/08/01 05:08:59;;;;;;;;;;;15.50;99.90;;;;;;5129987;28;19935;-68
2023/08/01 05:11:26;;;;;;;;;;;15.70;99.90;;;;;;5128892;28;19931;-67
2023/08/01 05:13:52;;;;;;;;;;;15.90;99.90;;;;;;5131710;28;19932;-67
2023/08/01 05:16:19;;;;;;;;;;;16.00;99.90;;;;;;5110717;28;19973;-67
2023/08/01 05:18:46;;;;;;;;;;;16.20;99.90;;;;;;5129889;28;20337;-67
2023/08/01 05:21:14;;;;;;;;;;;16.10;99.90;;;;;;5111474;28;19923;-67
2023/08/01 05:23:40;;;;;;;;;;;16.20;99.90;;;;;;5113856;28;19923;-68
2023/08/01 05:26:07;;;;;;;;;;;16.10;99.90;;;;;;5131272;28;19977;-66
2023/08/01 05:28:34;;;;;;;;;;;16.10;99.90;;;;;;5131650;28;19923;-68
2023/08/01 05:31:00;;;;;;;;;;;16.00;99.90;;;;;;5130722;28;19923;-68
2023/08/01 05:33:27;;;;;;;;;;;15.90;99.90;;;;;;5131343;28;19924;-67
2023/08/01 05:35:54;;;;;;;;;;;15.90;99.90;;;;;;5111476;28;19927;-67
2023/08/01 05:38:22;;;;;;;;;;;15.80;99.90;;;;;;5132173;28;19931;-68
2023/08/01 05:40:49;;;;;;;;;;;15.70;99.90;;;;;;5130942;28;19927;-68
2023/08/01 05:43:15;;;;;;;;;;;15.70;99.90;;;;;;5111834;28;19993;-68
2023/08/01 05:45:42;;;;;;;;;;;15.60;99.90;;;;;;5110348;28;19972;-68
2023/08/01 05:48:09;;;;;;;;;;;15.60;99.90;;;;;;5129607;27;19923;-67
2023/08/01 05:50:35;;;;;;;;;;;15.70;99.90;;;;;;5116931;27;19931;-67
2023/08/01 05:53:02;;;;;;;;;;;15.70;99.90;;;;;;5113741;27;19931;-67
2023/08/01 05:55:30;;;;;;;;;;;15.60;99.90;;;;;;5116853;27;19923;-67
2023/08/01 05:57:57;;;;;;;;;;;15.70;99.90;;;;;;5136822;27;20370;-67
2023/08/01 06:00:23;;;;;;;;;;;15.70;99.90;;;;;;5136662;27;19973;-68
2023/08/01 06:02:50;;;;;;;;;;;15.80;99.90;;;;;;5116001;27;19936;-67
2023/08/01 06:05:17;;;;;;;;;;;15.80;99.90;;;;;;5136548;27;19977;-67
2023/08/01 06:07:44;;;;;;;;;;;15.80;99.90;;;;;;5136658;27;19924;-68
2023/08/01 06:10:10;;;;;;;;;;;15.80;99.90;;;;;;5135662;27;20371;-67
2023/08/01 06:12:39;;;;;;;;;;;15.90;99.90;;;;;;5136589;27;19924;-68
2023/08/01 06:15:06;;;;;;;;;;;15.90;99.90;;;;;;5136242;27;19938;-67
2023/08/01 06:17:33;;;;;;;;;;;15.90;99.90;;;;;;5116289;27;20345;-68
2023/08/01 06:19:59;;;;;;;;;;;15.90;99.90;;;;;;5136084;27;19930;-68
2023/08/01 06:22:26;;;;;;;;;;;15.90;99.90;;;;;;5116729;27;19931;-68
2023/08/01 06:24:53;;;;;;;;;;;15.90;99.90;;;;;;5116973;27;19972;-67
2023/08/01 06:27:19;;;;;;;;;;;15.90;99.90;;;;;;5116487;27;20325;-67
2023/08/01 06:29:47;;;;;;;;;;;15.90;99.90;;;;;;5135342;27;19969;-67
2023/08/01 06:32:14;;;;;;;;;;;15.90;99.90;;;;;;5136403;27;19924;-67
2023/08/01 06:34:41;;;;;;;;;;;15.90;99.90;;;;;;5133994;27;19931;-67
2023/08/01 06:37:07;;;;;;;;;;;15.90;99.90;;;;;;5116168;27;19924;-67
2023/08/01 06:39:34;;;;;;;;;;;15.90;99.90;;;;;;5133679;27;19934;-67
2023/08/01 06:42:01;;;;;;;;;;;15.90;99.90;;;;;;5136076;27;20026;-66
2023/08/01 06:44:28;;;;;;;;;;;16.00;99.90;;;;;;5132950;27;19980;-66
2023/08/01 06:46:56;;;;;;;;;;;15.90;99.90;;;;;;5116255;27;19928;-67
2023/08/01 06:49:23;;;;;;;;;;;15.90;99.90;;;;;;5115248;27;19924;-67
2023/08/01 06:51:49;;;;;;;;;;;15.90;99.90;;;;;;5116335;27;19935;-67
2023/08/01 06:54:16;;;;;;;;;;;16.10;99.90;;;;;;5115422;27;19931;-67
2023/08/01 06:56:47;;;;;;;;;;;16.30;99.90;;;;;;5135480;27;19927;-66
2023/08/01 06:59:14;;;;;;;;;;;16.40;99.90;;;;;;5114615;27;19977;-67
2023/08/01 07:01:43;;;;;;;;;;;16.40;99.90;;;;;;5115125;27;19924;-67
2023/08/01 07:04:12;;;;;;;;;;;16.60;99.90;;;;;;5135845;27;19924;-67
2023/08/01 07:06:38;;;;;;;;;;;16.60;99.90;;;;;;5115625;27;20337;-67
2023/08/01 07:09:05;;;;;;;;;;;16.80;99.90;;;;;;5133152;27;19931;-67
2023/08/01 07:11:32;;;;;;;;;;;16.80;99.90;;;;;;5135286;27;20362;-67
2023/08/01 07:13:59;;;;;;;;;;;16.80;99.90;;;;;;5114363;27;19977;-67
2023/08/01 07:16:25;;;;;;;;;;;16.80;99.90;;;;;;5116085;27;19924;-67
2023/08/01 07:18:52;;;;;;;;;;;16.80;99.90;;;;;;5114541;27;19923;-67
2023/08/01 07:21:20;;;;;;;;;;;16.70;99.90;;;;;;5134524;27;19925;-67
2023/08/01 07:23:48;;;;;;;;;;;16.70;99.90;;;;;;5133174;27;20298;-67
2023/08/01 07:26:14;;;;;;;;;;;16.80;99.90;;;;;;5134519;27;20132;-67
2023/08/01 07:28:41;;;;;;;;;;;16.80;99.90;;;;;;5115059;27;19947;-67
2023/08/01 07:31:08;;;;;;;;;;;16.80;99.90;;;;;;5115886;27;19975;-67
2023/08/01 07:33:35;;;;;;;;;;;16.70;99.90;;;;;;5134572;27;19950;-67
2023/08/01 07:36:02;;;;;;;;;;;16.80;99.90;;;;;;5116022;27;19924;-67
2023/08/01 07:38:31;;;;;;;;;;;16.70;99.90;;;;;;5134902;27;19923;-67
2023/08/01 07:40:58;;;;;;;;;;;16.60;99.90;;;;;;5113579;27;19930;-67
2023/08/01 07:43:26;;;;;;;;;;;16.60;99.90;;;;;;5134750;27;20435;-67
2023/08/01 07:45:56;;;;;;;;;;;16.50;99.90;;;;;;5114361;27;20326;-67
2023/08/01 07:48:23;;;;;;;;;;;16.50;99.90;;;;;;5133910;27;19930;-66
2023/08/01 07:50:49;;;;;;;;;;;16.40;99.90;;;;;;5134493;27;19928;-68
2023/08/01 07:53:16;;;;;;;;;;;16.50;99.90;;;;;;5115659;27;19924;-68
2023/08/01 07:55:44;;;;;;;;;;;16.70;99.90;;;;;;5134039;27;19923;-67
2023/08/01 07:58:11;;;;;;;;;;;17.10;99.90;;;;;;5116247;27;19980;-68
2023/08/01 08:00:37;;;;;;;;;;;17.80;99.90;;;;;;5114930;27;20333;-69
2023/08/01 08:03:05;;;;;;;;;;;18.30;99.90;;;;;;5115144;27;20045;-69
2023/08/01 08:05:32;;;;;;;;;;;18.80;99.90;;;;;;5115120;27;20306;-69
2023/08/01 08:07:58;;;;;;;;;;;19.40;99.90;;;;;;5113818;27;19924;-69
2023/08/01 08:10:25;;;;;;;;;;;19.40;99.90;;;;;;5113969;27;19935;-68
2023/08/01 08:12:53;;;;;;;;;;;18.90;99.90;;;;;;5132210;27;19923;-68
2023/08/01 08:15:21;;;;;;;;;;;18.60;99.90;;;;;;5133471;27;19935;-69
2023/08/01 08:17:47;;;;;;;;;;;18.40;99.90;;;;;;5111666;27;19974;-68
2023/08/01 08:20:14;;;;;;;;;;;18.10;99.90;;;;;;5114233;27;19931;-68
2023/08/01 08:22:41;;;;;;;;;;;17.90;99.90;;;;;;5133838;27;19927;-68
2023/08/01 08:25:08;;;;;;;;;;;17.80;99.90;;;;;;5114793;27;19931;-69
2023/08/01 08:27:34;;;;;;;;;;;17.50;99.90;;;;;;5114303;27;19928;-68
2023/08/01 08:30:03;;;;;;;;;;;17.20;99.90;;;;;;5114410;27;19923;-68
2023/08/01 08:32:29;;;;;;;;;;;17.00;99.90;;;;;;5114683;27;19924;-68
2023/08/01 08:34:56;;;;;;;;;;;16.80;99.90;;;;;;5113180;27;19973;-68
2023/08/01 08:37:23;;;;;;;;;;;16.60;99.90;;;;;;5133213;27;19923;-68
2023/08/01 08:39:49;;;;;;;;;;;16.50;99.90;;;;;;5134009;27;19923;-68
2023/08/01 08:42:18;;;;;;;;;;;16.30;99.90;;;;;;5114576;27;21173;-68
2023/08/01 08:44:45;;;;;;;;;;;16.40;99.90;;;;;;5113538;27;19927;-68
2023/08/01 08:47:16;;;;;;;;;;;16.40;99.90;;;;;;5114959;28;20022;-68
2023/08/01 08:49:43;;;;;;;;;;;16.40;99.90;;;;;;5114036;27;19931;-68
2023/08/01 08:52:11;;;;;;;;;;;16.40;99.90;;;;;;5133061;27;19924;-68
2023/08/01 08:54:38;;;;;;;;;;;16.40;99.90;;;;;;5133631;27;19931;-68
2023/08/01 08:57:06;;;;;;;;;;;16.70;99.90;;;;;;5113542;28;19927;-68
2023/08/01 08:59:33;;;;;;;;;;;17.20;99.90;;;;;;5112359;28;19980;-67
2023/08/01 09:02:01;;;;;;;;;;;17.80;99.90;;;;;;5114193;28;19924;-68
2023/08/01 09:04:29;;;;;;;;;;;18.30;99.90;;;;;;5112274;28;19925;-68
2023/08/01 09:06:56;;;;;;;;;;;18.60;99.90;;;;;;5114230;28;20348;-68
2023/08/01 09:09:26;;;;;;;;;;;18.70;99.90;;;;;;5112868;28;20000;-68
2023/08/01 09:11:55;;;;;;;;;;;18.30;99.90;;;;;;5114079;28;20413;-68
2023/08/01 09:14:22;;;;;;;;;;;17.90;99.90;;;;;;5113932;28;20364;-67
2023/08/01 09:16:49;;;;;;;;;;;18.10;99.90;;;;;;5113201;28;20317;-68
2023/08/01 09:19:17;;;;;;;;;;;18.40;99.90;;;;;;5132525;28;19984;-68
2023/08/01 09:21:46;;;;;;;;;;;18.50;99.90;;;;;;5133284;27;19923;-68
2023/08/01 09:24:14;;;;;;;;;;;18.90;99.90;;;;;;5134702;27;20263;-67
2023/08/01 09:26:40;;;;;;;;;;;19.00;99.90;;;;;;5136577;27;19923;-68
2023/08/01 09:29:07;;;;;;;;;;;18.80;99.90;;;;;;5118904;27;19980;-68
2023/08/01 09:31:35;;;;;;;;;;;19.20;99.90;;;;;;5137357;27;19953;-68
2023/08/01 09:34:03;;;;;;;;;;;19.60;99.90;;;;;;5136863;27;19923;-68
2023/08/01 09:36:30;;;;;;;;;;;19.90;99.90;;;;;;5118565;27;20294;-68
2023/08/01 09:39:02;;;;;;;;;;;19.90;99.90;;;;;;5117450;27;20341;-68
2023/08/01 09:41:29;;;;;;;;;;;19.90;99.90;;;;;;5116133;27;19927;-68
2023/08/01 09:43:56;;;;;;;;;;;19.80;99.90;;;;;;5137177;27;19923;-68
2023/08/01 09:46:23;;;;;;;;;;;19.60;99.90;;;;;;5117313;27;19928;-68
2023/08/01 09:48:49;;;;;;;;;;;19.40;99.90;;;;;;5117743;27;19924;-68
2023/08/01 09:51:17;;;;;;;;;;;19.40;99.90;;;;;;5117349;27;19924;-68
2023/08/01 09:53:48;;;;;;;;;;;19.50;99.90;;;;;;5115704;27;19992;-68
2023/08/01 09:56:18;;;;;;;;;;;19.80;99.90;;;;;;5118132;27;19930;-68
2023/08/01 09:58:45;;;;;;;;;;;20.20;99.90;;;;;;5117589;27;19927;-68
2023/08/01 10:01:13;;;;;;;;;;;20.20;99.90;;;;;;5115713;27;19972;-68
2023/08/01 10:03:41;;;;;;;;;;;20.20;99.90;;;;;;5136772;27;19932;-68
2023/08/01 10:06:08;;;;;;;;;;;20.00;99.90;;;;;;5116822;27;19931;-68
2023/08/01 10:08:35;;;;;;;;;;;19.60;99.90;;;;;;5116724;27;19980;-69
2023/08/01 10:11:05;;;;;;;;;;;19.20;99.90;;;;;;5136734;27;19931;-69
2023/08/01 10:13:33;;;;;;;;;;;19.50;99.90;;;;;;5115552;27;19924;-68
2023/08/01 10:16:00;;;;;;;;;;;19.60;99.90;;;;;;5135785;27;19938;-69
2023/08/01 10:18:29;;;;;;;;;;;20.00;99.90;;;;;;5116101;27;19969;-69
2023/08/01 10:20:56;;;;;;;;;;;20.40;99.90;;;;;;5136221;27;19927;-69
2023/08/01 10:23:23;;;;;;;;;;;20.30;99.90;;;;;;5135585;27;19927;-69
2023/08/01 10:25:50;;;;;;;;;;;20.20;99.90;;;;;;5118042;27;19935;-69
2023/08/01 10:28:17;;;;;;;;;;;19.90;99.90;;;;;;5116714;27;20288;-69
2023/08/01 10:30:45;;;;;;;;;;;19.80;99.90;;;;;;5114918;27;19923;-69
2023/08/01 10:33:13;;;;;;;;;;;19.70;99.90;;;;;;5135791;27;19930;-67
2023/08/01 10:35:40;;;;;;;;;;;19.60;99.90;;;;;;5114827;27;20356;-68
2023/08/01 10:38:08;;;;;;;;;;;19.70;99.90;;;;;;5135245;27;19995;-68
2023/08/01 10:40:38;;;;;;;;;;;20.30;99.90;;;;;;5136072;27;19984;-68
2023/08/01 10:43:05;;;;;;;;;;;20.90;99.90;;;;;;5135427;27;19928;-68
2023/08/01 10:45:32;;;;;;;;;;;21.40;99.90;;;;;;5136371;27;19923;-69
2023/08/01 10:48:10;;;;;;;;;;;22.10;99.90;;;;;;5135742;27;19931;-69
2023/08/01 10:50:36;;;;;;;;;;;22.60;99.90;;;;;;5135348;27;19946;-69
2023/08/01 10:53:05;;;;;;;;;;;23.30;99.90;;;;;;5116900;27;19930;-69
2023/08/01 10:55:42;;;;;;;;;;;23.20;99.90;;;;;;5116522;27;20006;-68
2023/08/01 10:58:09;;;;;;;;;;;22.50;99.90;;;;;;5116450;27;20443;-68
2023/08/01 11:00:35;;;;;;;;;;;21.90;99.90;;;;;;5115901;27;20294;-68
2023/08/01 11:03:02;;;;;;;;;;;22.00;99.90;;;;;;5116670;27;19980;-68
2023/08/01 11:05:30;;;;;;;;;;;22.50;99.90;;;;;;5135166;27;20306;-68
2023/08/01 11:07:58;;;;;;;;;;;22.50;99.90;;;;;;5116928;27;19923;-68
2023/08/01 11:10:26;;;;;;;;;;;22.10;99.90;;;;;;5135252;27;19923;-68
2023/08/01 11:12:53;;;;;;;;;;;22.60;99.90;;;;;;5114425;27;19924;-68
2023/08/01 11:15:20;;;;;;;;;;;22.70;99.90;;;;;;5116253;27;19981;-68
2023/08/01 11:17:47;;;;;;;;;;;23.30;99.90;;;;;;5135464;27;19923;-69
2023/08/01 11:20:15;;;;;;;;;;;24.00;99.90;;;;;;5115670;27;19924;-69
2023/08/01 11:22:51;;;;;;;;;;;24.00;99.90;;;;;;5135238;27;19932;-70
2023/08/01 11:25:18;;;;;;;;;;;23.90;99.90;;;;;;5114982;27;19977;-69
2023/08/01 11:27:45;;;;;;;;;;;23.30;99.90;;;;;;5116519;27;19947;-69
2023/08/01 11:30:12;;;;;;;;;;;23.10;99.90;;;;;;5134855;27;19931;-69
2023/08/01 11:32:39;;;;;;;;;;;22.70;99.90;;;;;;5115927;27;19923;-69
2023/08/01 11:35:07;;;;;;;;;;;22.60;99.90;;;;;;5115819;27;19939;-68
2023/08/01 11:37:34;;;;;;;;;;;22.80;99.90;;;;;;5114395;27;19935;-68
2023/08/01 11:40:03;;;;;;;;;;;23.40;99.90;;;;;;5134147;27;19923;-68
2023/08/01 11:42:33;;;;;;;;;;;23.60;99.90;;;;;;5134647;27;20375;-68
2023/08/01 11:45:10;;;;;;;;;;;23.20;99.90;;;;;;5134681;27;19924;-68
2023/08/01 11:47:36;;;;;;;;;;;23.00;99.90;;;;;;5114360;27;19924;-68
2023/08/01 11:50:03;;;;;;;;;;;22.50;99.90;;;;;;5115826;27;19923;-67
2023/08/01 11:52:30;;;;;;;;;;;22.60;99.90;;;;;;5114842;27;19924;-69
2023/08/01 11:54:57;;;;;;;;;;;22.50;99.90;;;;;;5115370;27;19924;-69
2023/08/01 11:57:25;;;;;;;;;;;22.50;99.90;;;;;;5114641;27;20375;-69
2023/08/01 11:59:53;;;;;;;;;;;22.50;99.90;;;;;;5134489;27;20369;-68
2023/08/01 12:02:23;;;;;;;;;;;22.60;99.90;;;;;;5114666;27;19924;-68
2023/08/01 12:04:50;;;;;;;;;;;22.30;99.90;;;;;;5134339;27;19923;-67
2023/08/01 12:07:17;;;;;;;;;;;22.40;99.90;;;;;;5115677;27;19949;-68
2023/08/01 12:09:44;;;;;;;;;;;22.10;99.90;;;;;;5114183;27;19931;-68
2023/08/01 12:12:11;;;;;;;;;;;22.10;99.90;;;;;;5114174;27;19977;-68
2023/08/01 12:14:41;;;;;;;;;;;22.00;99.90;;;;;;5133445;27;19932;-68
2023/08/01 12:17:08;;;;;;;;;;;21.80;99.90;;;;;;5115069;27;20294;-68
2023/08/01 12:19:35;;;;;;;;;;;21.20;99.90;;;;;;5133848;27;19930;-68
2023/08/01 12:22:02;;;;;;;;;;;21.00;99.90;;;;;;5114379;27;19969;-68
2023/08/01 12:24:30;;;;;;;;;;;22.00;99.90;;;;;;5113276;27;20367;-69
2023/08/01 12:26:57;;;;;;;;;;;22.80;99.90;;;;;;5115166;27;20321;-68
2023/08/01 12:29:24;;;;;;;;;;;22.50;99.90;;;;;;5133285;27;19924;-68
2023/08/01 12:31:52;;;;;;;;;;;22.20;99.90;;;;;;5115647;27;19968;-68
2023/08/01 12:34:19;;;;;;;;;;;21.90;99.90;;;;;;5133712;27;19923;-68
2023/08/01 12:36:46;;;;;;;;;;;22.20;99.90;;;;;;5132994;27;19923;-69
2023/08/01 12:39:12;;;;;;;;;;;21.80;99.90;;;;;;5133820;27;20299;-68
2023/08/01 12:41:39;;;;;;;;;;;21.70;99.90;;;;;;5131554;27;19980;-68
2023/08/01 12:44:06;;;;;;;;;;;21.60;99.90;;;;;;5133128;27;19935;-68
2023/08/01 12:46:33;;;;;;;;;;;21.70;99.90;;;;;;5131481;27;20267;-67
2023/08/01 12:49:02;;;;;;;;;;;21.80;99.90;;;;;;5114175;28;19931;-69
2023/08/01 12:51:29;;;;;;;;;;;22.30;99.90;;;;;;5112629;27;19931;-68
2023/08/01 12:53:55;;;;;;;;;;;23.10;99.90;;;;;;5133664;27;19932;-68
2023/08/01 12:56:22;;;;;;;;;;;23.60;99.90;;;;;;5113648;27;20372;-68
2023/08/01 12:58:49;;;;;;;;;;;23.90;99.90;;;;;;5113686;28;19924;-68
2023/08/01 13:01:15;;;;;;;;;;;23.70;99.90;;;;;;5113424;28;20323;-68
2023/08/01 13:03:42;;;;;;;;;;;23.50;99.90;;;;;;5114277;28;19923;-68
2023/08/01 13:06:13;;;;;;;;;;;23.80;99.90;;;;;;5113850;28;19993;-69
2023/08/01 13:08:39;;;;;;;;;;;24.30;99.90;;;;;;5113176;28;20298;-69
2023/08/01 13:11:15;;;;;;;;;;;24.60;99.90;;;;;;5132830;28;19927;-68
2023/08/01 13:13:42;;;;;;;;;;;24.60;99.90;;;;;;5114294;28;19923;-68
2023/08/01 13:16:09;;;;;;;;;;;23.60;99.90;;;;;;5113035;28;20387;-68
2023/08/01 13:18:43;;;;;;;;;;;23.10;99.90;;;;;;5132606;28;19927;-68
2023/08/01 13:21:09;;;;;;;;;;;22.90;99.90;;;;;;5114360;28;20021;-68
2023/08/01 13:23:38;;;;;;;;;;;22.50;99.90;;;;;;5113280;28;19977;-69
2023/08/01 13:26:04;;;;;;;;;;;22.40;99.90;;;;;;5132700;28;19931;-69
2023/08/01 13:28:31;;;;;;;;;;;22.70;99.90;;;;;;5133141;28;19924;-69
2023/08/01 13:30:58;;;;;;;;;;;22.70;99.90;;;;;;5114346;28;20014;-68
2023/08/01 13:33:24;;;;;;;;;;;22.60;99.90;;;;;;5132685;28;19923;-68
2023/08/01 13:35:52;;;;;;;;;;;22.00;99.90;;;;;;5114575;28;20383;-68
2023/08/01 13:38:18;;;;;;;;;;;21.80;99.90;;;;;;5113285;28;19931;-68
2023/08/01 13:40:46;;;;;;;;;;;22.40;99.90;;;;;;5113841;28;19979;-68
2023/08/01 13:43:13;;;;;;;;;;;22.50;99.90;;;;;;5133159;28;19923;-68
2023/08/01 13:45:40;;;;;;;;;;;22.50;99.90;;;;;;5133248;28;19924;-68
2023/08/01 13:48:07;;;;;;;;;;;22.20;99.90;;;;;;5113089;28;19928;-68
2023/08/01 13:50:34;;;;;;;;;;;21.40;99.90;;;;;;5132952;28;19930;-68
2023/08/01 13:53:00;;;;;;;;;;;21.20;99.90;;;;;;5113007;28;19980;-68
2023/08/01 13:55:27;;;;;;;;;;;21.30;99.90;;;;;;5132843;28;19983;-68
2023/08/01 13:57:55;;;;;;;;;;;21.40;99.90;;;;;;5113594;28;20051;-69
2023/08/01 14:00:22;;;;;;;;;;;21.10;99.90;;;;;;5130384;28;19952;-67
2023/08/01 14:02:50;;;;;;;;;;;21.20;99.90;;;;;;5113719;28;19930;-67
2023/08/01 14:05:16;;;;;;;;;;;21.20;99.90;;;;;;5113024;28;19985;-67
2023/08/01 14:07:43;;;;;;;;;;;21.10;99.90;;;;;;5113958;28;19924;-68
2023/08/01 14:10:10;;;;;;;;;;;20.60;99.90;;;;;;5136059;27;19927;-68
2023/08/01 14:12:37;;;;;;;;;;;21.00;99.90;;;;;;5136684;27;19955;-68
2023/08/01 14:15:06;;;;;;;;;;;22.00;99.90;;;;;;5135704;27;20378;-68